createdAt,value
2022-08-17T00:00:42.958Z,4.15
2022-08-17T00:01:26.218Z,4.18
2022-08-17T00:02:01.485Z,3.78
2022-08-17T00:03:02.959Z,4.40
2022-08-17T00:03:38.362Z,3.72
2022-08-17T00:04:11.910Z,3.92
2022-08-17T00:04:47.070Z,3.70
2022-08-17T00:05:22.777Z,3.92
2022-08-17T00:05:57.548Z,3.53
2022-08-17T00:06:29.927Z,4.07
2022-08-17T00:07:01.964Z,3.80
2022-08-17T00:07:33.986Z,4.05
2022-08-17T00:08:06.285Z,3.90
2022-08-17T00:08:39.715Z,4.35
2022-08-17T00:09:11.791Z,4.40
2022-08-17T00:09:50.579Z,3.83
2022-08-17T00:10:23.078Z,3.95
2022-08-17T00:10:55.422Z,3.90
2022-08-17T00:11:29.456Z,4.07
2022-08-17T00:12:43.115Z,3.90
2022-08-17T00:12:54.444Z,3.60
2022-08-17T00:13:32.443Z,3.63
2022-08-17T00:14:07.148Z,3.72
2022-08-17T00:14:39.975Z,4.20
2022-08-17T00:15:13.388Z,3.78
2022-08-17T00:15:45.777Z,3.78
2022-08-17T00:16:20.656Z,4.50
2022-08-17T00:17:12.665Z,3.92
2022-08-17T00:17:46.668Z,3.90
2022-08-17T00:19:02.200Z,4.22
2022-08-17T00:19:13.472Z,3.72
2022-08-17T00:19:45.505Z,5.18
2022-08-17T00:20:18.497Z,4.10
2022-08-17T00:20:55.834Z,4.55
2022-08-17T00:22:29.849Z,4.70
2022-08-17T00:22:32.942Z,4.30
2022-08-17T00:23:13.278Z,3.83
2022-08-17T00:23:49.168Z,4.15
2022-08-17T00:24:22.083Z,4.00
2022-08-17T00:24:54.125Z,4.22
2022-08-17T00:25:26.367Z,3.80
2022-08-17T00:25:58.647Z,4.10
2022-08-17T00:26:44.198Z,4.35
2022-08-17T00:27:17.778Z,4.50
2022-08-17T00:27:49.791Z,3.90
2022-08-17T00:28:21.837Z,4.15
2022-08-17T00:28:54.559Z,4.00
2022-08-17T00:29:26.550Z,3.92
2022-08-17T00:29:58.604Z,3.53
2022-08-17T00:30:30.664Z,3.75
2022-08-17T00:31:23.322Z,4.00
2022-08-17T00:31:55.381Z,4.05
2022-08-17T00:33:16.082Z,3.88
2022-08-17T00:33:20.874Z,3.92
2022-08-17T00:33:52.990Z,4.00
2022-08-17T00:34:25.302Z,3.83
2022-08-17T00:34:59.956Z,4.30
2022-08-17T00:35:31.949Z,4.03
2022-08-17T00:36:06.016Z,4.75
2022-08-17T00:36:38.047Z,3.92
2022-08-17T00:37:10.067Z,4.03
2022-08-17T00:37:42.261Z,3.90
2022-08-17T00:38:14.833Z,4.10
2022-08-17T00:38:46.950Z,4.20
2022-08-17T00:39:19.002Z,3.60
2022-08-17T00:39:51.020Z,4.28
2022-08-17T00:40:24.749Z,4.10
2022-08-17T00:41:02.033Z,3.70
2022-08-17T00:41:35.789Z,4.15
2022-08-17T00:42:15.032Z,4.18
2022-08-17T00:42:47.815Z,4.35
2022-08-17T00:43:40.331Z,3.50
2022-08-17T00:44:12.599Z,3.92
2022-08-17T00:44:45.492Z,4.10
2022-08-17T00:45:18.289Z,4.25
2022-08-17T00:45:50.332Z,4.10
2022-08-17T00:46:28.952Z,4.28
2022-08-17T00:47:00.952Z,4.00
2022-08-17T00:47:32.976Z,4.28
2022-08-17T00:48:05.000Z,3.88
2022-08-17T00:48:44.099Z,5.00
2022-08-17T00:49:19.318Z,5.13
2022-08-17T00:49:51.779Z,4.10
2022-08-17T00:50:23.835Z,3.83
2022-08-17T00:50:57.921Z,3.97
2022-08-17T00:51:35.060Z,3.90
2022-08-17T00:52:15.387Z,3.97
2022-08-17T00:52:52.563Z,4.63
2022-08-17T00:53:26.698Z,4.05
2022-08-17T00:54:10.823Z,3.95
2022-08-17T00:54:44.982Z,3.72
2022-08-17T00:55:17.510Z,4.15
2022-08-17T00:55:49.556Z,4.47
2022-08-17T00:56:23.947Z,4.20
2022-08-17T00:57:00.704Z,3.92
2022-08-17T00:57:39.011Z,4.00
2022-08-17T00:58:11.008Z,4.15
2022-08-17T00:58:43.135Z,4.32
2022-08-17T00:59:17.698Z,4.20
2022-08-17T01:00:02.612Z,3.90
2022-08-17T01:00:37.886Z,4.00
2022-08-17T01:01:10.621Z,4.07
2022-08-17T01:01:42.865Z,3.80
2022-08-17T01:02:15.573Z,4.00
2022-08-17T01:02:48.006Z,3.72
2022-08-17T01:03:22.880Z,4.07
2022-08-17T01:03:57.035Z,3.95
2022-08-17T01:04:32.857Z,3.80
2022-08-17T01:05:05.097Z,3.83
2022-08-17T01:05:42.387Z,3.65
2022-08-17T01:06:14.809Z,3.65
2022-08-17T01:06:49.466Z,3.90
2022-08-17T01:07:23.380Z,4.43
2022-08-17T01:07:55.700Z,3.58
2022-08-17T01:08:29.258Z,3.92
2022-08-17T01:09:01.742Z,3.72
2022-08-17T01:09:34.008Z,4.20
2022-08-17T01:10:07.617Z,3.83
2022-08-17T01:11:04.102Z,4.75
2022-08-17T01:11:40.562Z,4.03
2022-08-17T01:12:12.722Z,3.92
2022-08-17T01:12:44.740Z,4.15
2022-08-17T01:13:17.137Z,3.83
2022-08-17T01:13:49.179Z,3.97
2022-08-17T01:14:22.298Z,3.70
2022-08-17T01:14:54.286Z,3.90
2022-08-17T01:15:26.323Z,3.70
2022-08-17T01:16:01.174Z,3.63
2022-08-17T01:16:33.459Z,4.07
2022-08-17T01:17:06.185Z,3.90
2022-08-17T01:17:38.347Z,3.83
2022-08-17T01:18:11.606Z,4.07
2022-08-17T01:18:44.859Z,3.80
2022-08-17T01:19:20.160Z,3.42
2022-08-17T01:19:52.184Z,4.22
2022-08-17T01:20:24.164Z,3.80
2022-08-17T01:20:57.670Z,3.90
2022-08-17T01:21:32.625Z,4.28
2022-08-17T01:22:07.662Z,3.83
2022-08-17T01:22:39.815Z,4.05
2022-08-17T01:23:11.829Z,3.70
2022-08-17T01:23:50.598Z,4.43
2022-08-17T01:24:22.730Z,4.22
2022-08-17T01:24:59.120Z,3.60
2022-08-17T01:25:31.184Z,3.92
2022-08-17T01:26:06.036Z,4.05
2022-08-17T01:26:39.203Z,3.88
2022-08-17T01:27:13.368Z,3.83
2022-08-17T01:27:45.587Z,3.72
2022-08-17T01:28:52.716Z,3.80
2022-08-17T01:29:10.167Z,3.65
2022-08-17T01:29:45.372Z,4.18
2022-08-17T01:30:56.894Z,4.00
2022-08-17T01:31:09.852Z,4.32
2022-08-17T01:31:45.438Z,3.55
2022-08-17T01:32:18.890Z,3.70
2022-08-17T01:32:51.607Z,4.60
2022-08-17T01:33:23.724Z,3.53
2022-08-17T01:33:57.886Z,4.00
2022-08-17T01:34:36.875Z,3.95
2022-08-17T01:35:15.711Z,4.63
2022-08-17T01:35:47.800Z,3.67
2022-08-17T01:36:20.233Z,3.78
2022-08-17T01:36:52.876Z,4.03
2022-08-17T01:37:32.198Z,3.70
2022-08-17T01:38:05.106Z,4.13
2022-08-17T01:38:38.697Z,4.20
2022-08-17T01:39:15.589Z,4.40
2022-08-17T01:39:50.090Z,3.58
2022-08-17T01:40:22.514Z,3.83
2022-08-17T01:40:57.970Z,4.22
2022-08-17T01:41:30.181Z,4.30
2022-08-17T01:42:07.083Z,3.45
2022-08-17T01:42:45.230Z,4.47
2022-08-17T01:43:22.797Z,3.75
2022-08-17T01:43:57.329Z,3.95
2022-08-17T01:44:29.394Z,4.38
2022-08-17T01:45:17.805Z,3.70
2022-08-17T01:46:03.288Z,3.83
2022-08-17T01:46:36.952Z,4.05
2022-08-17T01:47:09.000Z,3.92
2022-08-17T01:47:41.738Z,3.70
2022-08-17T01:48:13.951Z,3.70
2022-08-17T01:48:47.523Z,4.05
2022-08-17T01:49:19.734Z,3.92
2022-08-17T01:49:51.709Z,4.13
2022-08-17T01:50:25.602Z,3.50
2022-08-17T01:50:57.758Z,4.38
2022-08-17T01:51:32.843Z,4.03
2022-08-17T01:52:07.068Z,3.90
2022-08-17T01:52:39.356Z,3.58
2022-08-17T01:53:13.336Z,3.95
2022-08-17T01:53:50.235Z,3.72
2022-08-17T01:54:22.843Z,4.03
2022-08-17T01:54:55.233Z,4.05
2022-08-17T01:55:30.904Z,4.00
2022-08-17T01:56:06.737Z,3.80
2022-08-17T01:56:40.685Z,4.22
2022-08-17T01:57:13.348Z,3.95
2022-08-17T01:57:48.257Z,4.68
2022-08-17T01:58:20.394Z,4.32
2022-08-17T01:58:52.544Z,3.75
2022-08-17T01:59:24.871Z,3.88
2022-08-17T01:59:56.945Z,4.03
2022-08-17T02:01:00.054Z,4.30
2022-08-17T02:01:23.494Z,3.47
2022-08-17T02:01:55.505Z,3.97
2022-08-17T02:02:30.997Z,4.70
2022-08-17T02:03:04.435Z,3.90
2022-08-17T02:03:37.278Z,3.72
2022-08-17T02:04:09.373Z,3.92
2022-08-17T02:04:41.345Z,3.88
2022-08-17T02:05:13.834Z,3.67
2022-08-17T02:05:48.044Z,3.95
2022-08-17T02:06:27.182Z,4.00
2022-08-17T02:07:00.527Z,4.25
2022-08-17T02:07:32.585Z,3.88
2022-08-17T02:08:39.340Z,3.70
2022-08-17T02:09:17.271Z,5.05
2022-08-17T02:09:52.729Z,4.13
2022-08-17T02:10:24.906Z,4.30
2022-08-17T02:11:11.980Z,4.03
2022-08-17T02:11:44.151Z,4.03
2022-08-17T02:12:38.324Z,4.07
2022-08-17T02:13:09.618Z,4.05
2022-08-17T02:13:41.963Z,4.03
2022-08-17T02:14:14.085Z,4.00
2022-08-17T02:14:46.335Z,3.67
2022-08-17T02:15:19.567Z,3.95
2022-08-17T02:15:51.653Z,4.13
2022-08-17T02:16:23.695Z,3.88
2022-08-17T02:16:56.172Z,4.03
2022-08-17T02:17:28.204Z,4.18
2022-08-17T02:18:01.442Z,3.80
2022-08-17T02:18:33.659Z,4.40
2022-08-17T02:19:07.075Z,4.00
2022-08-17T02:19:39.104Z,3.75
2022-08-17T02:20:11.259Z,3.78
2022-08-17T02:20:43.317Z,4.40
2022-08-17T02:21:15.324Z,4.03
2022-08-17T02:21:48.535Z,3.88
2022-08-17T02:22:20.618Z,4.00
2022-08-17T02:22:52.697Z,3.60
2022-08-17T02:23:26.291Z,4.30
2022-08-17T02:23:58.509Z,3.78
2022-08-17T02:24:58.202Z,4.00
2022-08-17T02:25:24.611Z,4.38
2022-08-17T02:25:57.991Z,4.38
2022-08-17T02:26:29.998Z,4.00
2022-08-17T02:27:01.998Z,4.95
2022-08-17T02:27:34.121Z,3.97
2022-08-17T02:28:06.219Z,4.32
2022-08-17T02:28:38.276Z,3.90
2022-08-17T02:29:10.317Z,4.60
2022-08-17T02:29:42.311Z,4.13
2022-08-17T02:30:58.966Z,4.10
2022-08-17T02:31:09.564Z,4.15
2022-08-17T02:31:42.294Z,3.92
2022-08-17T02:32:27.355Z,3.90
2022-08-17T02:33:00.469Z,4.47
2022-08-17T02:33:41.923Z,4.07
2022-08-17T02:34:15.713Z,4.13
2022-08-17T02:34:47.788Z,4.18
2022-08-17T02:35:21.737Z,4.53
2022-08-17T02:35:54.312Z,4.03
2022-08-17T02:36:27.534Z,3.63
2022-08-17T02:36:59.679Z,3.72
2022-08-17T02:37:32.004Z,3.95
2022-08-17T02:38:05.178Z,3.95
2022-08-17T02:38:39.926Z,4.93
2022-08-17T02:39:12.744Z,4.20
2022-08-17T02:39:45.683Z,4.10
2022-08-17T02:40:18.004Z,4.30
2022-08-17T02:41:09.496Z,4.38
2022-08-17T02:41:41.523Z,4.32
2022-08-17T02:42:14.201Z,4.55
2022-08-17T02:42:46.279Z,4.22
2022-08-17T02:43:18.248Z,4.03
2022-08-17T02:43:50.287Z,4.07
2022-08-17T02:44:39.326Z,4.03
2022-08-17T02:45:20.193Z,4.20
2022-08-17T02:45:52.259Z,4.07
2022-08-17T02:46:24.691Z,3.80
2022-08-17T02:46:56.889Z,4.28
2022-08-17T02:47:28.941Z,4.28
2022-08-17T02:48:00.999Z,4.18
2022-08-17T02:48:33.033Z,3.80
2022-08-17T02:49:05.163Z,4.32
2022-08-17T02:49:37.731Z,4.38
2022-08-17T02:50:11.546Z,4.25
2022-08-17T02:50:43.552Z,4.15
2022-08-17T02:51:15.751Z,4.45
2022-08-17T02:51:49.561Z,3.72
2022-08-17T02:52:42.927Z,5.15
2022-08-17T02:53:13.595Z,4.05
2022-08-17T02:53:46.714Z,4.40
2022-08-17T02:54:40.538Z,3.95
2022-08-17T02:55:12.846Z,4.40
2022-08-17T02:55:44.972Z,4.00
2022-08-17T02:56:17.109Z,4.00
2022-08-17T02:56:49.087Z,4.20
2022-08-17T02:57:21.108Z,3.97
2022-08-17T02:57:53.257Z,3.90
2022-08-17T02:58:34.550Z,4.20
2022-08-17T02:59:07.740Z,4.03
2022-08-17T02:59:45.430Z,4.10
2022-08-17T03:00:22.601Z,4.07
2022-08-17T03:00:54.713Z,3.90
2022-08-17T03:01:29.350Z,4.05
2022-08-17T03:02:02.866Z,4.15
2022-08-17T03:02:38.093Z,4.03
2022-08-17T03:03:11.123Z,4.28
2022-08-17T03:03:43.287Z,4.00
2022-08-17T03:04:15.332Z,4.32
2022-08-17T03:04:47.353Z,4.32
2022-08-17T03:05:20.776Z,4.20
2022-08-17T03:05:53.264Z,4.13
2022-08-17T03:06:25.329Z,3.92
2022-08-17T03:06:57.360Z,3.90
2022-08-17T03:07:30.970Z,4.60
2022-08-17T03:08:03.307Z,4.18
2022-08-17T03:08:35.398Z,4.68
2022-08-17T03:09:07.434Z,4.13
2022-08-17T03:09:39.423Z,4.07
2022-08-17T03:10:11.949Z,4.20
2022-08-17T03:10:44.877Z,4.13
2022-08-17T03:11:16.848Z,4.05
2022-08-17T03:11:50.800Z,4.05
2022-08-17T03:12:28.218Z,4.20
2022-08-17T03:13:00.501Z,5.32
2022-08-17T03:13:32.572Z,3.85
2022-08-17T03:14:04.589Z,4.18
2022-08-17T03:14:41.257Z,4.28
2022-08-17T03:15:18.420Z,4.28
2022-08-17T03:15:50.656Z,4.15
2022-08-17T03:16:22.717Z,4.45
2022-08-17T03:16:54.712Z,4.30
2022-08-17T03:17:26.719Z,4.25
2022-08-17T03:17:59.784Z,10.02
2022-08-17T03:18:31.786Z,10.82
2022-08-17T03:19:03.820Z,13.50
2022-08-17T03:19:35.808Z,14.70
2022-08-17T03:20:12.614Z,16.00
2022-08-17T03:20:44.647Z,16.80
2022-08-17T03:21:16.684Z,18.00
2022-08-17T03:21:54.878Z,16.92
2022-08-17T03:22:37.337Z,18.25
2022-08-17T03:23:10.452Z,18.23
2022-08-17T03:23:43.002Z,17.85
2022-08-17T03:24:15.266Z,18.13
2022-08-17T03:24:50.161Z,17.17
2022-08-17T03:25:26.736Z,20.48
2022-08-17T03:25:59.037Z,21.48
2022-08-17T03:26:32.352Z,20.33
2022-08-17T03:27:04.531Z,20.33
2022-08-17T03:27:36.746Z,20.15
2022-08-17T03:28:14.691Z,19.00
2022-08-17T03:28:46.721Z,19.30
2022-08-17T03:29:19.335Z,19.23
2022-08-17T03:29:51.324Z,19.90
2022-08-17T03:30:24.090Z,18.40
2022-08-17T03:30:56.187Z,18.02
2022-08-17T03:31:28.317Z,19.67
2022-08-17T03:32:02.081Z,19.55
2022-08-17T03:32:44.885Z,19.52
2022-08-17T03:33:17.075Z,20.52
2022-08-17T03:33:49.135Z,19.90
2022-08-17T03:34:21.322Z,21.88
2022-08-17T03:34:57.436Z,20.52
2022-08-17T03:35:30.923Z,22.30
2022-08-17T03:36:03.070Z,21.63
2022-08-17T03:36:36.118Z,23.08
2022-08-17T03:37:08.450Z,21.08
2022-08-17T03:37:40.586Z,21.52
2022-08-17T03:38:12.764Z,22.42
2022-08-17T03:38:47.808Z,22.70
2022-08-17T03:39:19.808Z,22.45
2022-08-17T03:39:51.811Z,22.13
2022-08-17T03:40:34.650Z,21.38
2022-08-17T03:41:16.199Z,23.15
2022-08-17T03:41:48.194Z,23.85
2022-08-17T03:42:31.585Z,24.83
2022-08-17T03:43:09.216Z,23.77
2022-08-17T03:43:41.226Z,23.48
2022-08-17T03:44:13.234Z,25.05
2022-08-17T03:44:49.115Z,23.83
2022-08-17T03:45:42.600Z,24.05
2022-08-17T03:46:34.734Z,24.92
2022-08-17T03:47:26.180Z,25.17
2022-08-17T03:48:16.951Z,25.83
2022-08-17T03:49:07.901Z,25.58
2022-08-17T03:49:58.634Z,27.20
2022-08-17T03:50:49.268Z,26.42
2022-08-17T03:51:54.356Z,27.67
2022-08-17T03:52:45.295Z,25.92
2022-08-17T03:53:42.358Z,27.02
2022-08-17T03:54:32.824Z,27.17
2022-08-17T03:55:35.879Z,28.02
2022-08-17T03:56:27.189Z,27.95
2022-08-17T03:57:07.259Z,27.75
2022-08-17T03:57:39.994Z,26.77
2022-08-17T03:58:12.040Z,28.33
2022-08-17T03:58:44.137Z,28.48
2022-08-17T03:59:22.205Z,28.55
2022-08-17T03:59:55.159Z,28.88
2022-08-17T04:00:27.651Z,28.80
2022-08-17T04:00:59.821Z,30.45
2022-08-17T04:01:32.096Z,30.30
2022-08-17T04:02:08.990Z,30.02
2022-08-17T04:02:42.273Z,33.03
2022-08-17T04:03:14.708Z,31.38
2022-08-17T04:03:46.746Z,32.90
2022-08-17T04:04:19.256Z,32.17
2022-08-17T04:05:00.233Z,33.85
2022-08-17T04:05:32.273Z,36.80
2022-08-17T04:06:06.827Z,34.25
2022-08-17T04:06:39.219Z,34.22
2022-08-17T04:07:11.277Z,36.22
2022-08-17T04:07:43.518Z,36.30
2022-08-17T04:08:15.596Z,36.42
2022-08-17T04:08:47.585Z,36.30
2022-08-17T04:09:19.563Z,36.67
2022-08-17T04:09:51.632Z,36.22
2022-08-17T04:10:26.384Z,34.92
2022-08-17T04:10:58.590Z,38.95
2022-08-17T04:11:30.565Z,41.88
2022-08-17T04:12:04.750Z,42.15
2022-08-17T04:12:45.289Z,44.63
2022-08-17T04:13:24.841Z,44.67
2022-08-17T04:13:57.764Z,44.22
2022-08-17T04:14:33.808Z,44.85
2022-08-17T04:15:06.661Z,42.13
2022-08-17T04:15:38.649Z,43.38
2022-08-17T04:16:10.636Z,40.97
2022-08-17T04:16:43.157Z,38.22
2022-08-17T04:17:15.417Z,39.83
2022-08-17T04:17:47.672Z,38.70
2022-08-17T04:18:19.945Z,39.05
2022-08-17T04:18:52.582Z,44.53
2022-08-17T04:19:24.559Z,44.58
2022-08-17T04:19:57.252Z,44.83
2022-08-17T04:20:29.455Z,43.95
2022-08-17T04:21:01.574Z,45.13
2022-08-17T04:21:34.426Z,44.25
2022-08-17T04:22:06.643Z,45.45
2022-08-17T04:22:38.693Z,42.88
2022-08-17T04:23:15.336Z,44.47
2022-08-17T04:23:47.554Z,41.15
2022-08-17T04:24:19.543Z,39.58
2022-08-17T04:24:51.526Z,41.70
2022-08-17T04:25:23.748Z,44.70
2022-08-17T04:25:55.778Z,45.47
2022-08-17T04:26:53.300Z,46.35
2022-08-17T04:27:20.464Z,44.15
2022-08-17T04:27:52.473Z,42.08
2022-08-17T04:28:24.562Z,40.33
2022-08-17T04:28:58.476Z,40.10
2022-08-17T04:29:55.098Z,38.78
2022-08-17T04:30:22.776Z,41.05
2022-08-17T04:30:54.808Z,40.90
2022-08-17T04:31:27.085Z,41.45
2022-08-17T04:31:59.142Z,41.08
2022-08-17T04:33:04.099Z,41.63
2022-08-17T04:33:24.674Z,46.75
2022-08-17T04:33:56.704Z,44.83
2022-08-17T04:34:28.679Z,44.45
2022-08-17T04:35:00.945Z,44.85
2022-08-17T04:35:34.484Z,44.85
2022-08-17T04:36:07.578Z,45.00
2022-08-17T04:36:39.600Z,45.30
2022-08-17T04:37:11.573Z,46.05
2022-08-17T04:37:44.995Z,45.97
2022-08-17T04:38:18.398Z,47.95
2022-08-17T04:38:50.479Z,46.42
2022-08-17T04:39:24.998Z,49.40
2022-08-17T04:40:15.862Z,48.35
2022-08-17T04:41:06.408Z,46.75
2022-08-17T04:41:57.251Z,49.20
2022-08-17T04:42:29.223Z,49.85
2022-08-17T04:43:02.595Z,48.33
2022-08-17T04:43:35.249Z,48.58
2022-08-17T04:44:07.269Z,50.58
2022-08-17T04:44:39.244Z,49.38
2022-08-17T04:45:11.348Z,51.40
2022-08-17T04:45:55.671Z,50.33
2022-08-17T04:46:32.888Z,49.85
2022-08-17T04:47:05.542Z,50.72
2022-08-17T04:47:37.694Z,49.30
2022-08-17T04:48:10.178Z,48.67
2022-08-17T04:48:43.355Z,48.45
2022-08-17T04:49:15.408Z,49.63
2022-08-17T04:49:47.520Z,49.85
2022-08-17T04:50:21.596Z,50.28
2022-08-17T04:50:53.671Z,50.00
2022-08-17T04:51:28.003Z,49.22
2022-08-17T04:52:04.245Z,51.33
2022-08-17T04:52:45.021Z,51.55
2022-08-17T04:53:18.346Z,50.80
2022-08-17T04:53:54.894Z,50.63
2022-08-17T04:54:27.200Z,49.15
2022-08-17T04:55:02.614Z,48.03
2022-08-17T04:55:34.607Z,47.13
2022-08-17T04:56:06.776Z,48.22
2022-08-17T04:56:39.448Z,49.10
2022-08-17T04:57:11.468Z,45.63
2022-08-17T04:57:45.252Z,48.97
2022-08-17T04:58:17.364Z,48.05
2022-08-17T04:58:50.312Z,47.47
2022-08-17T04:59:22.877Z,47.35
2022-08-17T04:59:54.868Z,44.47
2022-08-17T05:00:27.308Z,44.83
2022-08-17T05:00:59.440Z,45.25
2022-08-17T05:01:32.568Z,46.22
2022-08-17T05:02:04.704Z,48.70
2022-08-17T05:02:44.982Z,47.33
2022-08-17T05:03:22.449Z,46.10
2022-08-17T05:03:56.281Z,47.22
2022-08-17T05:04:34.539Z,47.28
2022-08-17T05:05:07.556Z,46.63
2022-08-17T05:05:43.109Z,47.33
2022-08-17T05:06:15.216Z,47.42
2022-08-17T05:06:47.684Z,47.85
2022-08-17T05:07:23.496Z,46.78
2022-08-17T05:07:58.007Z,46.70
2022-08-17T05:08:30.005Z,47.90
2022-08-17T05:09:02.569Z,48.45
2022-08-17T05:09:34.577Z,45.05
2022-08-17T05:10:06.880Z,44.40
2022-08-17T05:10:45.177Z,45.42
2022-08-17T05:11:17.735Z,42.75
2022-08-17T05:11:49.800Z,45.45
2022-08-17T05:12:21.817Z,44.35
2022-08-17T05:13:00.546Z,44.20
2022-08-17T05:13:32.675Z,45.03
2022-08-17T05:14:04.808Z,44.58
2022-08-17T05:14:38.753Z,43.70
2022-08-17T05:15:11.802Z,44.75
2022-08-17T05:15:44.939Z,44.30
2022-08-17T05:16:17.998Z,44.90
2022-08-17T05:16:51.132Z,42.75
2022-08-17T05:17:23.683Z,41.70
2022-08-17T05:17:56.331Z,41.30
2022-08-17T05:18:28.960Z,40.33
2022-08-17T05:19:02.544Z,41.55
2022-08-17T05:19:34.522Z,39.97
2022-08-17T05:20:09.579Z,39.20
2022-08-17T05:20:41.718Z,37.65
2022-08-17T05:21:14.616Z,38.38
2022-08-17T05:21:46.592Z,37.30
2022-08-17T05:22:18.556Z,37.58
2022-08-17T05:22:51.965Z,37.55
2022-08-17T05:23:25.736Z,39.47
2022-08-17T05:23:58.571Z,36.63
2022-08-17T05:24:40.795Z,36.83
2022-08-17T05:25:25.782Z,35.50
2022-08-17T05:25:59.044Z,38.05
2022-08-17T05:26:31.109Z,33.10
2022-08-17T05:27:06.108Z,35.78
2022-08-17T05:27:38.802Z,37.58
2022-08-17T05:28:13.482Z,35.85
2022-08-17T05:28:45.472Z,36.13
2022-08-17T05:29:18.794Z,36.53
2022-08-17T05:29:50.812Z,34.28
2022-08-17T05:30:23.841Z,34.40
2022-08-17T05:30:57.229Z,35.88
2022-08-17T05:31:30.305Z,36.17
2022-08-17T05:32:38.839Z,33.40
2022-08-17T05:33:01.533Z,33.13
2022-08-17T05:33:39.568Z,32.65
2022-08-17T05:34:13.520Z,35.42
2022-08-17T05:34:45.531Z,35.05
2022-08-17T05:35:17.535Z,35.72
2022-08-17T05:35:50.735Z,35.05
2022-08-17T05:36:42.603Z,32.35
2022-08-17T05:37:14.805Z,31.75
2022-08-17T05:37:46.821Z,33.97
2022-08-17T05:38:20.179Z,30.30
2022-08-17T05:38:52.249Z,33.20
2022-08-17T05:39:24.317Z,33.70
2022-08-17T05:39:56.476Z,34.53
2022-08-17T05:40:32.626Z,34.53
2022-08-17T05:41:06.550Z,31.67
2022-08-17T05:41:39.153Z,32.92
2022-08-17T05:42:11.144Z,30.30
2022-08-17T05:42:43.562Z,30.50
2022-08-17T05:43:17.512Z,32.65
2022-08-17T05:43:54.324Z,32.70
2022-08-17T05:44:28.192Z,31.80
2022-08-17T05:45:00.496Z,30.70
2022-08-17T05:45:55.727Z,32.65
2022-08-17T05:46:29.220Z,31.30
2022-08-17T05:47:01.599Z,32.05
2022-08-17T05:47:33.685Z,29.95
2022-08-17T05:48:07.269Z,31.63
2022-08-17T05:48:42.062Z,33.35
2022-08-17T05:49:14.756Z,28.35
2022-08-17T05:49:49.084Z,31.38
2022-08-17T05:50:26.068Z,30.35
2022-08-17T05:51:01.867Z,27.38
2022-08-17T05:51:37.450Z,30.25
2022-08-17T05:52:09.422Z,28.60
2022-08-17T05:52:54.768Z,26.40
2022-08-17T05:53:29.773Z,27.88
2022-08-17T05:54:11.947Z,26.00
2022-08-17T05:54:43.940Z,26.45
2022-08-17T05:55:31.304Z,26.23
2022-08-17T05:56:27.947Z,28.30
2022-08-17T05:57:31.760Z,26.30
2022-08-17T05:58:10.892Z,25.75
2022-08-17T05:58:45.837Z,26.13
2022-08-17T05:59:20.788Z,24.30
2022-08-17T06:00:10.401Z,26.50
2022-08-17T06:00:58.141Z,25.63
2022-08-17T06:01:43.801Z,25.63
2022-08-17T06:02:15.764Z,23.48
2022-08-17T06:03:06.169Z,25.30
2022-08-17T06:04:16.789Z,22.73
2022-08-17T06:04:48.770Z,25.05
2022-08-17T06:05:38.050Z,23.60
2022-08-17T06:06:31.580Z,22.80
2022-08-17T06:07:09.743Z,22.80
2022-08-17T06:07:49.713Z,23.73
2022-08-17T06:08:32.329Z,22.70
2022-08-17T06:09:18.735Z,25.02
2022-08-17T06:10:02.969Z,23.98
2022-08-17T06:10:43.970Z,23.95
2022-08-17T06:11:28.133Z,22.98
2022-08-17T06:12:04.431Z,23.35
2022-08-17T06:12:37.546Z,23.67
2022-08-17T06:13:18.824Z,22.77
2022-08-17T06:13:53.391Z,23.30
2022-08-17T06:14:36.057Z,22.80
2022-08-17T06:15:11.065Z,23.55
2022-08-17T06:15:55.329Z,22.65
2022-08-17T06:16:35.480Z,24.02
2022-08-17T06:17:10.230Z,22.80
2022-08-17T06:17:42.917Z,21.00
2022-08-17T06:18:19.037Z,23.10
2022-08-17T06:19:02.365Z,21.92
2022-08-17T06:19:39.540Z,21.63
2022-08-17T06:20:13.578Z,20.30
2022-08-17T06:20:50.043Z,21.38
2022-08-17T06:21:24.198Z,20.98
2022-08-17T06:22:06.214Z,22.23
2022-08-17T06:22:41.349Z,21.58
2022-08-17T06:23:18.268Z,21.08
2022-08-17T06:23:50.248Z,21.73
2022-08-17T06:24:34.506Z,20.48
2022-08-17T06:25:12.422Z,21.15
2022-08-17T06:25:47.040Z,20.15
2022-08-17T06:26:25.808Z,21.15
2022-08-17T06:27:07.632Z,20.65
2022-08-17T06:27:48.582Z,20.30
2022-08-17T06:28:36.061Z,20.95
2022-08-17T06:29:20.222Z,19.83
2022-08-17T06:30:00.196Z,20.23
2022-08-17T06:30:57.466Z,20.00
2022-08-17T06:31:31.259Z,19.95
2022-08-17T06:32:04.482Z,20.85
2022-08-17T06:32:38.193Z,20.52
2022-08-17T06:33:15.918Z,20.65
2022-08-17T06:33:48.651Z,20.15
2022-08-17T06:34:21.687Z,19.55
2022-08-17T06:34:53.879Z,19.40
2022-08-17T06:35:32.073Z,18.55
2022-08-17T06:36:09.597Z,19.88
2022-08-17T06:36:42.185Z,22.20
2022-08-17T06:37:29.937Z,20.95
2022-08-17T06:38:37.007Z,18.45
2022-08-17T06:39:29.577Z,17.15
2022-08-17T06:40:07.781Z,18.48
2022-08-17T06:40:50.676Z,19.58
2022-08-17T06:41:31.740Z,18.80
2022-08-17T06:43:00.849Z,19.65
2022-08-17T06:43:32.727Z,18.15
2022-08-17T06:44:12.713Z,18.90
2022-08-17T06:45:04.882Z,18.00
2022-08-17T06:45:43.281Z,17.70
2022-08-17T06:46:15.237Z,18.17
2022-08-17T06:46:49.544Z,19.35
2022-08-17T06:47:40.075Z,19.77
2022-08-17T06:48:26.145Z,18.77
2022-08-17T06:49:17.278Z,18.00
2022-08-17T06:50:03.071Z,17.38
2022-08-17T06:50:40.669Z,18.92
2022-08-17T06:51:35.447Z,16.30
2022-08-17T06:52:42.315Z,17.65
2022-08-17T06:53:25.362Z,17.10
2022-08-17T06:54:05.518Z,17.25
2022-08-17T06:54:56.251Z,17.95
2022-08-17T06:55:35.791Z,16.00
2022-08-17T06:56:11.184Z,17.65
2022-08-17T06:56:55.449Z,14.57
2022-08-17T06:57:37.902Z,17.25
2022-08-17T06:58:16.702Z,17.13
2022-08-17T06:58:49.541Z,16.90
2022-08-17T06:59:54.501Z,16.08
2022-08-17T07:00:23.150Z,16.73
2022-08-17T07:00:59.068Z,16.50
2022-08-17T07:01:33.413Z,15.77
2022-08-17T07:02:06.899Z,16.85
2022-08-17T07:02:57.400Z,17.02
2022-08-17T07:03:37.860Z,16.58
2022-08-17T07:04:13.135Z,16.50
2022-08-17T07:04:45.746Z,15.52
2022-08-17T07:05:20.476Z,15.65
2022-08-17T07:06:01.199Z,19.15
2022-08-17T07:06:37.785Z,17.10
2022-08-17T07:07:29.989Z,16.80
2022-08-17T07:08:01.958Z,16.00
2022-08-17T07:08:38.004Z,16.52
2022-08-17T07:09:21.524Z,15.77
2022-08-17T07:09:54.427Z,16.40
2022-08-17T07:10:27.522Z,15.55
2022-08-17T07:11:13.014Z,14.82
2022-08-17T07:11:48.011Z,15.73
2022-08-17T07:12:22.588Z,14.93
2022-08-17T07:12:58.193Z,15.48
2022-08-17T07:13:42.123Z,14.82
2022-08-17T07:14:32.593Z,15.80
2022-08-17T07:15:05.526Z,16.42
2022-08-17T07:15:42.283Z,15.43
2022-08-17T07:16:26.151Z,15.57
2022-08-17T07:17:01.962Z,15.38
2022-08-17T07:17:46.460Z,14.18
2022-08-17T07:18:26.514Z,15.27
2022-08-17T07:19:00.022Z,14.80
2022-08-17T07:19:32.910Z,14.90
2022-08-17T07:20:08.591Z,14.85
2022-08-17T07:20:43.457Z,14.65
2022-08-17T07:21:34.250Z,14.95
2022-08-17T07:22:21.365Z,15.50
2022-08-17T07:23:01.989Z,15.15
2022-08-17T07:23:44.545Z,14.25
2022-08-17T07:24:43.324Z,15.88
2022-08-17T07:25:18.470Z,14.82
2022-08-17T07:25:52.988Z,14.25
2022-08-17T07:26:25.019Z,14.23
2022-08-17T07:27:04.690Z,15.73
2022-08-17T07:27:38.925Z,14.77
2022-08-17T07:28:13.006Z,14.73
2022-08-17T07:28:45.140Z,15.65
2022-08-17T07:29:17.951Z,14.18
2022-08-17T07:29:56.865Z,14.55
2022-08-17T07:30:51.060Z,15.02
2022-08-17T07:31:24.962Z,14.10
2022-08-17T07:31:57.423Z,15.00
2022-08-17T07:32:31.723Z,14.63
2022-08-17T07:33:03.787Z,14.55
2022-08-17T07:33:36.851Z,12.45
2022-08-17T07:34:14.478Z,14.00
2022-08-17T07:35:07.466Z,13.43
2022-08-17T07:35:44.121Z,13.70
2022-08-17T07:36:29.571Z,14.50
2022-08-17T07:37:05.329Z,14.02
2022-08-17T07:37:39.082Z,14.60
2022-08-17T07:38:24.419Z,15.45
2022-08-17T07:38:58.633Z,14.38
2022-08-17T07:39:31.190Z,13.93
2022-08-17T07:40:21.116Z,12.80
2022-08-17T07:41:05.910Z,13.23
2022-08-17T07:41:53.378Z,14.05
2022-08-17T07:42:30.853Z,12.88
2022-08-17T07:43:14.038Z,14.60
2022-08-17T07:43:54.291Z,14.95
2022-08-17T07:44:26.534Z,15.18
2022-08-17T07:45:18.653Z,13.95
2022-08-17T07:46:18.490Z,13.75
2022-08-17T07:47:10.675Z,13.68
2022-08-17T07:48:07.651Z,14.75
2022-08-17T07:48:41.970Z,14.30
2022-08-17T07:49:14.040Z,14.38
2022-08-17T07:49:46.432Z,13.18
2022-08-17T07:50:26.393Z,13.75
2022-08-17T07:51:00.178Z,13.50
2022-08-17T07:51:37.679Z,15.27
2022-08-17T07:52:47.795Z,13.35
2022-08-17T07:53:35.725Z,12.75
2022-08-17T07:54:18.448Z,12.30
2022-08-17T07:54:50.437Z,13.43
2022-08-17T07:55:26.989Z,12.65
2022-08-17T07:55:58.948Z,13.23
2022-08-17T07:56:37.322Z,13.40
2022-08-17T07:57:12.781Z,11.80